createdAt,value
2018-09-14T00:00:04.801Z,102130.00
2018-09-14T00:02:34.668Z,102128.00
2018-09-14T00:05:05.233Z,102126.00
2018-09-14T00:07:34.731Z,102122.00
2018-09-14T00:10:04.850Z,102117.00
2018-09-14T00:12:35.157Z,102121.00
2018-09-14T00:15:05.066Z,102119.00
2018-09-14T00:17:34.940Z,102119.00
2018-09-14T00:20:05.128Z,102119.00
2018-09-14T00:22:34.801Z,102110.00
2018-09-14T00:25:04.770Z,102114.00
2018-09-14T00:27:34.643Z,102114.00
2018-09-14T00:30:04.817Z,102106.00
2018-09-14T00:32:34.748Z,102112.00
2018-09-14T00:35:05.528Z,102106.00
2018-09-14T00:37:35.080Z,102113.00
2018-09-14T00:40:04.953Z,102114.00
2018-09-14T00:42:34.924Z,102114.00
2018-09-14T00:45:04.972Z,102107.00
2018-09-14T00:47:34.752Z,102113.00
2018-09-14T00:50:05.202Z,102112.00
2018-09-14T00:52:34.747Z,102112.00
2018-09-14T00:55:04.737Z,102109.00
2018-09-14T00:57:34.837Z,102108.00
2018-09-14T01:00:05.018Z,102114.00
2018-09-14T01:02:34.841Z,102108.00
2018-09-14T01:05:04.998Z,102106.00
2018-09-14T01:07:35.835Z,102105.00
2018-09-14T01:10:06.617Z,102106.00
2018-09-14T01:12:36.027Z,102106.00
2018-09-14T01:15:05.411Z,102106.00
2018-09-14T01:17:34.786Z,102098.00
2018-09-14T01:20:05.087Z,102098.00
2018-09-14T01:22:34.845Z,102099.00
2018-09-14T01:25:04.930Z,102097.00
2018-09-14T01:27:34.894Z,102098.00
2018-09-14T01:30:05.065Z,102098.00
2018-09-14T01:32:34.822Z,102095.00
2018-09-14T01:35:09.015Z,102092.00
2018-09-14T01:37:38.378Z,102093.00
2018-09-14T01:40:07.718Z,102097.00
2018-09-14T01:42:37.028Z,102098.00
2018-09-14T01:45:06.389Z,102096.00
2018-09-14T01:47:35.736Z,102094.00
2018-09-14T01:50:05.449Z,102086.00
2018-09-14T01:52:35.037Z,102085.00
2018-09-14T01:55:05.258Z,102078.00
2018-09-14T01:57:34.975Z,102081.00
2018-09-14T02:00:05.650Z,102078.00
2018-09-14T02:02:34.998Z,102076.00
2018-09-14T02:05:05.540Z,102074.00
2018-09-14T02:07:35.229Z,102072.00
2018-09-14T02:10:05.104Z,102068.00
2018-09-14T02:12:41.473Z,102078.00
2018-09-14T02:15:10.932Z,102074.00
2018-09-14T02:17:40.269Z,102071.00
2018-09-14T02:20:09.635Z,102070.00
2018-09-14T02:22:38.991Z,102070.00
2018-09-14T02:25:08.317Z,102068.00
2018-09-14T02:27:37.779Z,102067.00
2018-09-14T02:30:07.514Z,102065.00
2018-09-14T02:32:37.270Z,102057.00
2018-09-14T02:35:06.679Z,102050.00
2018-09-14T02:37:36.228Z,102057.00
2018-09-14T02:40:05.668Z,102048.00
2018-09-14T02:42:35.033Z,102048.00
2018-09-14T02:45:05.737Z,102047.00
2018-09-14T02:47:35.582Z,102048.00
2018-09-14T02:50:05.097Z,102044.00
2018-09-14T02:52:35.126Z,102046.00
2018-09-14T02:55:05.106Z,102043.00
2018-09-14T02:57:35.118Z,102038.00
2018-09-14T03:00:05.657Z,102035.00
2018-09-14T03:02:35.075Z,102035.00
2018-09-14T03:05:05.289Z,102031.00
2018-09-14T03:07:35.042Z,102038.00
2018-09-14T03:10:05.734Z,102041.00
2018-09-14T03:12:35.110Z,102037.00
2018-09-14T03:15:05.149Z,102043.00
2018-09-14T03:17:35.147Z,102045.00
2018-09-14T03:20:05.259Z,102046.00
2018-09-14T03:22:35.204Z,102044.00
2018-09-14T03:25:05.097Z,102042.00
2018-09-14T03:27:35.135Z,102049.00
2018-09-14T03:30:05.213Z,102050.00
2018-09-14T03:32:35.315Z,102047.00
2018-09-14T03:35:05.222Z,102053.00
2018-09-14T03:37:35.111Z,102061.00
2018-09-14T03:40:05.151Z,102053.00
2018-09-14T03:42:35.142Z,102061.00
2018-09-14T03:45:05.147Z,102056.00
2018-09-14T03:47:35.189Z,102059.00
2018-09-14T03:50:05.218Z,102058.00
2018-09-14T03:52:35.236Z,102063.00
2018-09-14T03:55:05.182Z,102057.00
2018-09-14T03:57:35.183Z,102059.00
2018-09-14T04:00:05.221Z,102056.00
2018-09-14T04:02:35.237Z,102056.00
2018-09-14T04:05:05.262Z,102057.00
2018-09-14T04:07:35.270Z,102056.00
2018-09-14T04:10:05.266Z,102060.00
2018-09-14T04:12:35.190Z,102062.00
2018-09-14T04:15:05.247Z,102064.00
2018-09-14T04:17:35.185Z,102065.00
2018-09-14T04:20:05.282Z,102065.00
2018-09-14T04:22:35.167Z,102062.00
2018-09-14T04:25:05.647Z,102062.00
2018-09-14T04:27:35.238Z,102065.00
2018-09-14T04:30:05.332Z,102065.00
2018-09-14T04:32:35.257Z,102061.00
2018-09-14T04:35:05.249Z,102063.00
2018-09-14T04:37:35.279Z,102062.00
2018-09-14T04:40:05.573Z,102066.00
2018-09-14T04:42:35.206Z,102068.00
2018-09-14T04:45:05.465Z,102065.00
2018-09-14T04:47:35.606Z,102069.00
2018-09-14T04:50:05.413Z,102074.00
2018-09-14T04:52:35.366Z,102077.00
2018-09-14T04:55:05.271Z,102080.00
2018-09-14T04:57:35.379Z,102076.00
2018-09-14T05:00:05.335Z,102073.00
2018-09-14T05:02:35.266Z,102075.00
2018-09-14T05:05:05.812Z,102075.00
2018-09-14T05:07:35.329Z,102075.00
2018-09-14T05:10:05.425Z,102081.00
2018-09-14T05:12:35.509Z,102074.00
2018-09-14T05:15:05.381Z,102076.00
2018-09-14T05:17:35.294Z,102074.00
2018-09-14T05:20:05.325Z,102071.00
2018-09-14T05:22:35.389Z,102072.00
2018-09-14T05:25:05.401Z,102073.00
2018-09-14T05:27:35.365Z,102074.00
2018-09-14T05:30:05.345Z,102069.00
2018-09-14T05:32:35.371Z,102068.00
2018-09-14T05:35:05.419Z,102071.00
2018-09-14T05:37:35.320Z,102070.00
2018-09-14T05:40:05.417Z,102073.00
2018-09-14T05:42:35.279Z,102067.00
2018-09-14T05:45:05.637Z,102075.00
2018-09-14T05:47:35.433Z,102067.00
2018-09-14T05:50:05.313Z,102071.00
2018-09-14T05:52:35.456Z,102073.00
2018-09-14T05:55:05.494Z,102073.00
2018-09-14T05:57:35.459Z,102066.00
2018-09-14T06:00:05.407Z,102072.00
2018-09-14T06:02:35.434Z,102077.00
2018-09-14T06:05:06.276Z,102081.00
2018-09-14T06:07:35.913Z,102083.00
2018-09-14T06:10:06.402Z,102084.00
2018-09-14T06:12:35.874Z,102079.00
2018-09-14T06:15:05.345Z,102086.00
2018-09-14T06:17:35.369Z,102089.00
2018-09-14T06:20:05.526Z,102094.00
2018-09-14T06:22:35.507Z,102086.00
2018-09-14T06:25:05.939Z,102085.00
2018-09-14T06:27:35.910Z,102086.00
2018-09-14T06:30:05.625Z,102083.00
2018-09-14T06:34:56.681Z,102079.00
2018-09-14T06:37:25.991Z,102083.00
2018-09-14T06:39:55.340Z,102078.00
2018-09-14T06:42:24.744Z,102080.00
2018-09-14T06:44:54.115Z,102079.00
2018-09-14T06:47:23.453Z,102075.00
2018-09-14T06:49:52.923Z,102075.00
2018-09-14T06:52:22.232Z,102072.00
2018-09-14T06:54:51.647Z,102077.00
2018-09-14T06:57:21.022Z,102084.00
2018-09-14T06:59:50.331Z,102078.00
2018-09-14T07:02:19.649Z,102083.00
2018-09-14T07:04:49.014Z,102086.00
2018-09-14T07:07:18.374Z,102080.00
2018-09-14T07:09:47.715Z,102085.00
2018-09-14T07:12:17.015Z,102083.00
2018-09-14T07:14:46.370Z,102083.00
2018-09-14T07:17:15.711Z,102086.00
2018-09-14T07:19:45.131Z,102089.00
2018-09-14T07:22:14.506Z,102089.00
2018-09-14T07:24:43.901Z,102090.00
2018-09-14T07:27:13.159Z,102091.00
2018-09-14T07:29:42.497Z,102094.00
2018-09-14T07:32:11.837Z,102084.00
2018-09-14T07:34:41.188Z,102086.00
2018-09-14T07:37:10.479Z,102092.00
2018-09-14T07:39:39.794Z,102094.00
2018-09-14T07:42:09.111Z,102096.00
2018-09-14T07:44:38.434Z,102094.00
2018-09-14T07:47:07.859Z,102088.00
2018-09-14T07:49:37.257Z,102083.00
2018-09-14T07:52:06.713Z,102082.00
2018-09-14T07:54:36.175Z,102086.00
2018-09-14T07:57:06.229Z,102078.00
2018-09-14T07:59:36.179Z,102085.00
2018-09-14T08:02:06.357Z,102091.00
2018-09-14T08:04:36.545Z,102089.00
2018-09-14T08:07:06.286Z,102088.00
2018-09-14T08:09:36.208Z,102089.00
2018-09-14T08:12:06.706Z,102091.00
2018-09-14T08:14:36.291Z,102094.00
2018-09-14T08:17:06.294Z,102090.00
2018-09-14T08:19:36.315Z,102092.00
2018-09-14T08:22:06.205Z,102092.00
2018-09-14T08:24:38.178Z,102091.00
2018-09-14T08:27:07.186Z,102085.00
2018-09-14T08:29:36.443Z,102085.00
2018-09-14T08:32:06.456Z,102083.00
2018-09-14T08:34:36.487Z,102087.00
2018-09-14T08:37:06.357Z,102083.00
2018-09-14T08:39:36.306Z,102085.00
2018-09-14T08:42:06.275Z,102087.00
2018-09-14T08:44:36.386Z,102087.00
2018-09-14T08:47:06.422Z,102083.00
2018-09-14T08:49:36.383Z,102092.00
2018-09-14T08:52:06.626Z,102090.00
2018-09-14T08:54:36.375Z,102091.00
2018-09-14T08:57:06.377Z,102090.00
2018-09-14T08:59:36.299Z,102085.00
2018-09-14T09:02:06.461Z,102083.00
2018-09-14T09:04:36.274Z,102087.00
2018-09-14T09:07:06.527Z,102085.00
2018-09-14T09:09:37.265Z,102085.00
2018-09-14T09:12:06.694Z,102083.00
2018-09-14T09:14:36.365Z,102087.00
2018-09-14T09:17:06.466Z,102084.00
2018-09-14T09:19:36.545Z,102084.00
2018-09-14T09:22:06.570Z,102080.00
2018-09-14T09:24:36.298Z,102081.00
2018-09-14T09:27:05.692Z,102085.00
2018-09-14T09:29:36.221Z,102082.00
2018-09-14T09:32:07.209Z,102081.00
2018-09-14T09:34:36.580Z,102079.00
2018-09-14T09:37:06.478Z,102085.00
2018-09-14T09:39:36.494Z,102076.00
2018-09-14T09:42:06.503Z,102080.00
2018-09-14T09:44:36.487Z,102078.00
2018-09-14T09:47:06.412Z,102076.00
2018-09-14T09:49:36.456Z,102080.00
2018-09-14T09:52:06.431Z,102079.00
2018-09-14T09:54:36.425Z,102075.00
2018-09-14T09:57:06.544Z,102075.00
2018-09-14T09:59:36.657Z,102073.00
2018-09-14T10:02:11.711Z,102068.00
2018-09-14T10:04:46.424Z,102067.00
2018-09-14T10:07:15.746Z,102065.00
2018-09-14T10:09:45.095Z,102071.00
2018-09-14T10:12:14.456Z,102068.00
2018-09-14T10:14:43.767Z,102067.00
2018-09-14T10:17:13.116Z,102060.00
2018-09-14T10:19:42.448Z,102061.00
2018-09-14T10:22:11.756Z,102058.00
2018-09-14T10:24:41.104Z,102059.00
2018-09-14T10:27:10.501Z,102065.00
2018-09-14T10:29:39.838Z,102051.00
2018-09-14T10:32:09.259Z,102059.00
2018-09-14T10:34:38.624Z,102051.00
2018-09-14T10:37:07.974Z,102047.00
2018-09-14T10:39:37.334Z,102045.00
2018-09-14T10:42:06.776Z,102047.00
2018-09-14T10:44:36.622Z,102047.00
2018-09-14T10:47:06.577Z,102039.00
2018-09-14T10:49:36.537Z,102034.00
2018-09-14T10:52:06.548Z,102045.00
2018-09-14T10:54:36.592Z,102044.00
2018-09-14T10:57:06.528Z,102039.00
2018-09-14T10:59:36.638Z,102038.00
2018-09-14T11:02:06.561Z,102040.00
2018-09-14T11:04:36.641Z,102035.00
2018-09-14T11:07:07.081Z,102037.00
2018-09-14T11:09:36.609Z,102031.00
2018-09-14T11:12:06.735Z,102022.00
2018-09-14T11:14:36.606Z,102016.00
2018-09-14T11:17:06.768Z,102017.00
2018-09-14T11:19:36.538Z,102013.00
2018-09-14T11:22:06.761Z,102011.00
2018-09-14T11:24:36.623Z,102003.00
2018-09-14T11:27:13.267Z,102008.00
2018-09-14T11:29:42.600Z,102001.00
2018-09-14T11:32:12.005Z,101996.00
2018-09-14T11:34:41.307Z,101999.00
2018-09-14T11:37:10.643Z,101996.00
2018-09-14T11:39:39.983Z,101987.00
2018-09-14T11:42:09.320Z,101984.00
2018-09-14T11:44:38.688Z,101996.00
2018-09-14T11:47:08.371Z,101988.00
2018-09-14T11:49:37.760Z,101975.00
2018-09-14T11:52:07.327Z,101983.00
2018-09-14T11:54:36.756Z,101983.00
2018-09-14T11:57:06.830Z,101979.00
2018-09-14T11:59:36.638Z,101965.00
2018-09-14T12:02:06.935Z,101967.00
2018-09-14T12:04:36.794Z,101968.00
2018-09-14T12:07:06.803Z,101963.00
2018-09-14T12:09:36.726Z,101963.00
2018-09-14T12:12:06.936Z,101957.00
2018-09-14T12:14:37.244Z,101967.00
2018-09-14T12:17:06.804Z,101960.00
2018-09-14T12:19:36.713Z,101968.00
2018-09-14T12:22:07.229Z,101960.00
2018-09-14T12:24:36.722Z,101961.00
2018-09-14T12:27:06.948Z,101953.00
2018-09-14T12:29:36.732Z,101955.00
2018-09-14T12:32:06.819Z,101944.00
2018-09-14T12:34:37.017Z,101938.00
2018-09-14T12:37:06.878Z,101933.00
2018-09-14T12:39:37.143Z,101937.00
2018-09-14T12:42:06.879Z,101939.00
2018-09-14T12:44:36.884Z,101946.00
2018-09-14T12:47:07.181Z,101939.00
2018-09-14T12:49:36.862Z,101943.00
2018-09-14T12:52:06.823Z,101938.00
2018-09-14T12:54:36.901Z,101937.00
2018-09-14T12:57:06.914Z,101933.00
2018-09-14T12:59:36.789Z,101934.00
2018-09-14T13:02:06.960Z,101935.00
2018-09-14T13:04:36.849Z,101932.00
2018-09-14T13:07:07.006Z,101928.00
2018-09-14T13:09:37.373Z,101928.00
2018-09-14T13:12:06.960Z,101922.00
2018-09-14T13:14:36.909Z,101918.00
2018-09-14T13:17:11.148Z,101916.00
2018-09-14T13:19:40.939Z,101912.00
2018-09-14T13:22:10.697Z,101904.00
2018-09-14T13:24:40.080Z,101913.00
2018-09-14T13:27:09.399Z,101902.00
2018-09-14T13:29:38.791Z,101908.00
2018-09-14T13:32:08.297Z,101903.00
2018-09-14T13:34:37.623Z,101909.00
2018-09-14T13:37:07.008Z,101907.00
2018-09-14T13:39:36.873Z,101902.00
2018-09-14T13:42:07.197Z,101902.00
2018-09-14T13:44:37.005Z,101898.00
2018-09-14T13:47:07.083Z,101892.00
2018-09-14T13:49:36.894Z,101893.00
2018-09-14T13:52:07.017Z,101894.00
2018-09-14T13:54:37.007Z,101889.00
2018-09-14T13:57:07.046Z,101887.00
2018-09-14T13:59:37.113Z,101890.00
2018-09-14T14:02:06.956Z,101895.00
2018-09-14T14:04:36.985Z,101900.00
2018-09-14T14:07:07.009Z,101893.00
2018-09-14T14:09:37.045Z,101883.00
2018-09-14T14:12:07.292Z,101882.00
2018-09-14T14:14:37.035Z,101879.00
2018-09-14T14:17:07.108Z,101882.00
2018-09-14T14:19:36.978Z,101879.00
2018-09-14T14:22:07.376Z,101876.00
2018-09-14T14:24:36.980Z,101880.00
2018-09-14T14:27:07.179Z,101876.00
2018-09-14T14:29:37.190Z,101870.00
2018-09-14T14:32:07.176Z,101866.00
2018-09-14T14:34:36.999Z,101871.00
2018-09-14T14:37:07.050Z,101866.00
2018-09-14T14:39:37.167Z,101869.00
2018-09-14T14:42:07.220Z,101872.00
2018-09-14T14:44:37.148Z,101866.00
2018-09-14T14:47:07.133Z,101867.00
2018-09-14T14:49:37.118Z,101868.00
2018-09-14T14:52:07.060Z,101861.00
2018-09-14T14:54:37.121Z,101864.00
2018-09-14T14:57:07.390Z,101864.00
2018-09-14T14:59:37.166Z,101863.00
2018-09-14T15:02:07.229Z,101856.00
2018-09-14T15:04:37.263Z,101855.00
2018-09-14T15:07:07.169Z,101855.00
2018-09-14T15:09:37.129Z,101858.00
2018-09-14T15:12:07.245Z,101855.00
2018-09-14T15:14:37.104Z,101846.00
2018-09-14T15:17:07.180Z,101846.00
2018-09-14T15:19:37.230Z,101847.00
2018-09-14T15:22:07.161Z,101843.00
2018-09-14T15:24:37.158Z,101843.00
2018-09-14T15:27:07.170Z,101851.00
2018-09-14T15:29:37.115Z,101847.00
2018-09-14T15:32:07.157Z,101842.00
2018-09-14T15:34:37.070Z,101839.00
2018-09-14T15:37:07.378Z,101838.00
2018-09-14T15:39:37.159Z,101841.00
2018-09-14T15:42:07.172Z,101838.00
2018-09-14T15:44:37.168Z,101834.00
2018-09-14T15:47:07.445Z,101840.00
2018-09-14T15:49:37.258Z,101839.00
2018-09-14T15:52:07.189Z,101834.00
2018-09-14T15:54:37.161Z,101845.00
2018-09-14T15:57:07.270Z,101843.00
2018-09-14T15:59:37.269Z,101847.00
2018-09-14T16:04:42.430Z,101842.00
2018-09-14T16:07:11.759Z,101843.00
2018-09-14T16:09:41.093Z,101836.00
2018-09-14T16:12:10.387Z,101840.00
2018-09-14T16:14:39.729Z,101844.00
2018-09-14T16:17:09.033Z,101827.00
2018-09-14T16:19:38.369Z,101831.00
2018-09-14T16:22:07.720Z,101829.00
2018-09-14T16:24:37.268Z,101830.00
2018-09-14T16:27:07.346Z,101834.00
2018-09-14T16:29:37.302Z,101831.00
2018-09-14T16:32:07.269Z,101842.00
2018-09-14T16:34:37.416Z,101836.00
2018-09-14T16:37:08.373Z,101835.00
2018-09-14T16:39:37.628Z,101840.00
2018-09-14T16:42:07.413Z,101840.00
2018-09-14T16:44:39.085Z,101836.00
2018-09-14T16:47:09.710Z,101829.00
2018-09-14T16:49:39.412Z,101825.00
2018-09-14T16:52:09.092Z,101831.00
2018-09-14T16:54:38.452Z,101831.00
2018-09-14T16:57:07.836Z,101830.00
2018-09-14T16:59:37.308Z,101828.00
2018-09-14T17:02:07.261Z,101825.00
2018-09-14T17:04:37.353Z,101828.00
2018-09-14T17:07:07.523Z,101828.00
2018-09-14T17:09:37.369Z,101824.00
2018-09-14T17:12:07.319Z,101827.00
2018-09-14T17:14:37.343Z,101825.00
2018-09-14T17:17:07.340Z,101827.00
2018-09-14T17:19:37.580Z,101832.00
2018-09-14T17:22:07.723Z,101838.00
2018-09-14T17:24:37.343Z,101837.00
2018-09-14T17:27:07.610Z,101835.00
2018-09-14T17:29:37.367Z,101839.00
2018-09-14T17:32:07.386Z,101840.00
2018-09-14T17:34:37.409Z,101842.00
2018-09-14T17:37:07.425Z,101840.00
2018-09-14T17:39:37.454Z,101837.00
2018-09-14T17:42:07.413Z,101840.00
2018-09-14T17:44:37.382Z,101841.00
2018-09-14T17:47:07.463Z,101838.00
2018-09-14T17:49:37.482Z,101847.00
2018-09-14T17:52:07.397Z,101848.00
2018-09-14T17:54:37.449Z,101844.00
2018-09-14T17:57:07.470Z,101842.00
2018-09-14T17:59:37.436Z,101839.00
2018-09-14T18:02:07.642Z,101843.00
2018-09-14T18:04:37.506Z,101838.00
2018-09-14T18:07:07.437Z,101843.00
2018-09-14T18:09:37.507Z,101845.00
2018-09-14T18:12:07.541Z,101842.00
2018-09-14T18:14:37.406Z,101846.00
2018-09-14T18:17:07.685Z,101844.00
2018-09-14T18:19:37.442Z,101840.00
2018-09-14T18:22:07.555Z,101834.00
2018-09-14T18:24:37.541Z,101841.00
2018-09-14T18:27:07.896Z,101839.00
2018-09-14T18:29:38.371Z,101847.00
2018-09-14T18:32:07.950Z,101851.00
2018-09-14T18:34:37.495Z,101843.00
2018-09-14T18:37:07.646Z,101847.00
2018-09-14T18:39:37.523Z,101856.00
2018-09-14T18:42:07.447Z,101847.00
2018-09-14T18:44:37.401Z,101842.00
2018-09-14T18:47:07.551Z,101851.00
2018-09-14T18:49:37.448Z,101845.00
2018-09-14T18:52:07.578Z,101849.00
2018-09-14T18:54:37.536Z,101847.00
2018-09-14T18:57:07.508Z,101849.00
2018-09-14T18:59:37.455Z,101853.00
2018-09-14T19:02:07.613Z,101853.00
2018-09-14T19:04:38.327Z,101845.00
2018-09-14T19:07:09.895Z,101848.00
2018-09-14T19:09:45.733Z,101850.00
2018-09-14T19:12:16.093Z,101838.00
2018-09-14T19:14:45.914Z,101841.00
2018-09-14T19:17:16.990Z,101842.00
2018-09-14T19:19:46.448Z,101834.00
2018-09-14T19:22:16.185Z,101832.00
2018-09-14T19:24:45.544Z,101839.00
2018-09-14T19:27:14.921Z,101840.00
2018-09-14T19:29:44.244Z,101842.00
2018-09-14T19:32:13.535Z,101840.00
2018-09-14T19:34:42.898Z,101839.00
2018-09-14T19:37:12.233Z,101842.00
2018-09-14T19:39:41.573Z,101837.00
2018-09-14T19:42:10.869Z,101834.00
2018-09-14T19:44:40.258Z,101840.00
2018-09-14T19:47:09.504Z,101836.00
2018-09-14T19:49:38.802Z,101839.00
2018-09-14T19:52:08.071Z,101835.00
2018-09-14T19:54:37.767Z,101833.00
2018-09-14T19:57:07.761Z,101834.00
2018-09-14T19:59:37.828Z,101831.00
2018-09-14T20:02:07.858Z,101830.00
2018-09-14T20:04:37.814Z,101827.00
2018-09-14T20:07:07.999Z,101825.00
2018-09-14T20:09:37.843Z,101823.00
2018-09-14T20:12:07.916Z,101820.00
2018-09-14T20:14:37.970Z,101824.00
2018-09-14T20:17:07.911Z,101820.00
2018-09-14T20:19:37.890Z,101821.00
2018-09-14T20:22:08.902Z,101807.00
2018-09-14T20:24:38.320Z,101812.00
2018-09-14T20:27:08.010Z,101812.00
2018-09-14T20:29:38.930Z,101812.00
2018-09-14T20:32:08.272Z,101813.00
2018-09-14T20:34:38.104Z,101813.00
2018-09-14T20:37:08.039Z,101809.00
2018-09-14T20:39:38.028Z,101799.00
2018-09-14T20:42:08.037Z,101804.00
2018-09-14T20:44:38.076Z,101804.00
2018-09-14T20:47:08.099Z,101801.00
2018-09-14T20:49:38.115Z,101804.00
2018-09-14T20:52:08.161Z,101802.00
2018-09-14T20:54:38.088Z,101801.00
2018-09-14T20:57:08.244Z,101805.00
2018-09-14T20:59:38.171Z,101804.00
2018-09-14T21:02:08.253Z,101802.00
2018-09-14T21:04:38.199Z,101814.00
2018-09-14T21:07:08.197Z,101810.00
2018-09-14T21:09:38.427Z,101813.00
2018-09-14T21:12:07.501Z,101811.00
2018-09-14T21:14:36.805Z,101816.00
2018-09-14T21:17:06.151Z,101819.00
2018-09-14T21:19:36.270Z,101826.00
2018-09-14T21:22:05.732Z,101826.00
2018-09-14T21:24:35.031Z,101833.00
2018-09-14T21:27:04.404Z,101829.00
2018-09-14T21:29:33.712Z,101829.00
2018-09-14T21:32:03.077Z,101833.00
2018-09-14T21:34:32.416Z,101830.00
2018-09-14T21:37:01.726Z,101835.00
2018-09-14T21:39:31.030Z,101832.00
2018-09-14T21:42:00.345Z,101830.00
2018-09-14T21:44:29.638Z,101829.00
2018-09-14T21:46:58.933Z,101825.00
2018-09-14T21:49:28.250Z,101829.00
2018-09-14T21:51:57.519Z,101827.00
2018-09-14T21:54:26.812Z,101830.00
2018-09-14T21:56:56.118Z,101826.00
2018-09-14T21:59:25.547Z,101832.00
2018-09-14T22:01:54.853Z,101832.00
2018-09-14T22:04:24.116Z,101829.00
2018-09-14T22:06:53.433Z,101830.00
2018-09-14T22:09:22.726Z,101830.00
2018-09-14T22:11:52.019Z,101828.00
2018-09-14T22:14:21.355Z,101826.00
2018-09-14T22:16:50.694Z,101825.00
2018-09-14T22:19:19.971Z,101819.00
2018-09-14T22:21:55.955Z,101812.00
2018-09-14T22:24:25.269Z,101821.00
2018-09-14T22:26:54.777Z,101822.00
2018-09-14T22:29:24.093Z,101820.00
2018-09-14T22:31:53.380Z,101824.00
2018-09-14T22:34:22.677Z,101823.00
2018-09-14T22:36:52.054Z,101819.00
2018-09-14T22:39:21.362Z,101820.00
2018-09-14T22:41:50.662Z,101826.00
2018-09-14T22:44:26.333Z,101822.00
2018-09-14T22:46:55.931Z,101825.00
2018-09-14T22:49:25.251Z,101823.00
2018-09-14T22:51:54.555Z,101823.00
2018-09-14T22:54:23.879Z,101827.00
2018-09-14T22:56:53.199Z,101828.00
2018-09-14T22:59:22.570Z,101829.00
2018-09-14T23:01:53.399Z,101828.00
2018-09-14T23:04:22.665Z,101824.00
2018-09-14T23:06:51.995Z,101823.00
2018-09-14T23:09:21.352Z,101826.00
2018-09-14T23:11:50.616Z,101824.00
2018-09-14T23:14:19.929Z,101825.00
2018-09-14T23:16:49.224Z,101823.00
2018-09-14T23:19:18.498Z,101820.00
2018-09-14T23:21:47.796Z,101821.00
2018-09-14T23:24:17.090Z,101823.00
2018-09-14T23:26:46.422Z,101820.00
2018-09-14T23:29:15.766Z,101822.00
2018-09-14T23:31:45.032Z,101817.00
2018-09-14T23:34:14.333Z,101813.00
2018-09-14T23:36:43.640Z,101816.00
2018-09-14T23:39:13.017Z,101817.00
2018-09-14T23:41:42.301Z,101813.00
2018-09-14T23:44:11.761Z,101818.00
2018-09-14T23:46:41.019Z,101825.00
2018-09-14T23:49:10.353Z,101827.00
2018-09-14T23:51:39.666Z,101825.00
2018-09-14T23:54:09.029Z,101826.00
2018-09-14T23:56:38.824Z,101826.00
2018-09-14T23:59:08.877Z,101828.00
